Time;durP1;ratioP1;P1;durP2;ratioP2;P2;SDS_P1;SDS_P2;PMS_P1;PMS_P2;Temp;Humidity;BMP_temperature;BMP_pressure;BME280_temperature;BME280_humidity;BME280_pressure;Samples;Min_cycle;Max_cycle;Signal;HPM_P1;HPM_P2
2022/05/15 00:00:58;;;;;;;10.90;5.30;;;8.40;99.90;;;;;;4952629;29;20026;-45
2022/05/15 00:03:24;;;;;;;12.52;5.28;;;8.40;99.90;;;;;;4952060;28;20597;-45
2022/05/15 00:05:56;;;;;;;13.57;5.30;;;8.30;99.90;;;;;;4952392;29;20038;-46
2022/05/15 00:08:23;;;;;;;13.40;5.35;;;8.30;99.90;;;;;;4952127;29;20106;-46
2022/05/15 00:10:50;;;;;;;12.00;4.82;;;8.30;99.90;;;;;;4952314;29;20503;-46
2022/05/15 00:13:15;;;;;;;10.50;5.05;;;8.20;99.90;;;;;;4934761;29;20550;-46
2022/05/15 00:15:41;;;;;;;10.50;3.63;;;8.20;99.90;;;;;;4952533;29;20090;-46
2022/05/15 00:18:08;;;;;;;13.18;4.75;;;8.20;99.90;;;;;;4952610;29;20035;-47
2022/05/15 00:20:34;;;;;;;11.77;5.20;;;8.10;99.90;;;;;;4951748;29;20046;-46
2022/05/15 00:23:00;;;;;;;11.68;5.05;;;8.10;99.90;;;;;;4934303;28;20027;-46
2022/05/15 00:25:26;;;;;;;12.57;4.43;;;8.00;99.90;;;;;;4951772;29;20035;-46
2022/05/15 00:27:52;;;;;;;11.43;4.95;;;8.00;99.90;;;;;;4951798;29;20155;-49
2022/05/15 00:30:19;;;;;;;12.48;5.03;;;8.00;99.90;;;;;;4951773;28;20476;-48
2022/05/15 00:32:44;;;;;;;9.32;4.20;;;7.90;99.90;;;;;;4951403;28;20023;-47
2022/05/15 00:35:11;;;;;;;9.27;4.40;;;7.90;99.90;;;;;;4951755;29;20059;-48
2022/05/15 00:37:37;;;;;;;14.23;4.30;;;7.90;99.90;;;;;;4951676;29;20037;-47
2022/05/15 00:40:04;;;;;;;10.52;5.05;;;7.90;99.90;;;;;;4951927;29;20027;-49
2022/05/15 00:42:29;;;;;;;9.93;4.78;;;7.80;99.90;;;;;;4951498;29;20023;-50
2022/05/15 00:44:55;;;;;;;10.52;4.72;;;7.80;99.90;;;;;;4951605;28;20039;-50
2022/05/15 00:47:21;;;;;;;10.55;4.68;;;7.80;99.90;;;;;;4965981;28;20027;-48
2022/05/15 00:49:47;;;;;;;9.90;4.72;;;7.80;99.90;;;;;;4971183;28;20480;-48
2022/05/15 00:52:19;;;;;;;15.60;4.85;;;7.70;99.90;;;;;;4971050;28;20546;-46
2022/05/15 00:54:57;;;;;;;9.43;5.18;;;7.80;99.90;;;;;;4971490;28;20034;-49
2022/05/15 00:57:31;;;;;;;12.48;6.13;;;7.70;99.90;;;;;;4971391;28;20368;-46
2022/05/15 01:00:05;;;;;;;13.07;4.78;;;7.70;99.90;;;;;;4972925;28;20402;-48
2022/05/15 01:02:50;;;;;;;8.93;5.40;;;7.70;99.90;;;;;;4972527;28;20109;-47
2022/05/15 01:05:17;;;;;;;10.80;4.63;;;7.70;99.90;;;;;;4974228;28;20578;-48
2022/05/15 01:07:42;;;;;;;13.88;5.10;;;7.60;99.90;;;;;;4974401;28;20031;-47
2022/05/15 01:10:09;;;;;;;12.18;4.90;;;7.70;99.90;;;;;;4974909;28;20030;-48
2022/05/15 01:12:38;;;;;;;11.75;5.10;;;7.60;99.90;;;;;;4974707;28;20570;-46
2022/05/15 01:15:04;;;;;;;9.57;5.70;;;7.60;99.90;;;;;;4957222;28;20035;-46
2022/05/15 01:17:30;;;;;;;11.30;5.68;;;7.60;99.90;;;;;;4974743;28;20365;-46
2022/05/15 01:20:09;;;;;;;13.15;5.85;;;7.50;99.90;;;;;;4974274;28;20049;-47
2022/05/15 01:22:35;;;;;;;11.70;5.28;;;7.50;99.90;;;;;;4974002;28;20050;-49
2022/05/15 01:25:11;;;;;;;11.98;4.75;;;7.50;99.90;;;;;;4974077;28;20023;-47
2022/05/15 01:27:37;;;;;;;11.60;5.70;;;7.50;99.90;;;;;;4974523;28;20015;-45
2022/05/15 01:30:05;;;;;;;10.27;5.82;;;7.40;99.90;;;;;;4974870;28;20023;-47
2022/05/15 01:32:31;;;;;;;13.55;5.45;;;7.50;99.90;;;;;;4974485;28;20054;-47
2022/05/15 01:34:57;;;;;;;9.70;4.80;;;7.40;99.90;;;;;;4974471;28;20030;-48
2022/05/15 01:37:23;;;;;;;10.82;5.20;;;7.40;99.90;;;;;;4974535;28;20411;-46
2022/05/15 01:39:48;;;;;;;11.27;5.00;;;7.40;99.90;;;;;;4974420;28;20234;-46
2022/05/15 01:42:14;;;;;;;8.65;5.50;;;7.40;99.90;;;;;;4973764;28;20055;-47
2022/05/15 01:44:40;;;;;;;16.17;5.82;;;7.40;99.90;;;;;;4974048;28;20528;-47
2022/05/15 01:47:06;;;;;;;15.57;6.28;;;7.30;99.90;;;;;;4974172;28;20060;-49
2022/05/15 01:49:31;;;;;;;12.45;6.53;;;7.30;99.90;;;;;;4974064;28;20023;-48
2022/05/15 01:51:57;;;;;;;12.38;6.03;;;7.40;99.90;;;;;;4973760;28;20102;-46
2022/05/15 01:54:22;;;;;;;10.73;5.13;;;7.40;99.90;;;;;;4956754;28;20022;-47
2022/05/15 01:56:48;;;;;;;14.13;5.72;;;7.30;99.90;;;;;;4973981;28;20019;-47
2022/05/15 01:59:13;;;;;;;12.10;5.57;;;7.30;99.90;;;;;;4974013;28;20034;-47
2022/05/15 02:01:40;;;;;;;10.95;5.10;;;7.30;99.90;;;;;;4973571;28;20031;-47
2022/05/15 02:04:07;;;;;;;11.20;4.93;;;7.30;99.90;;;;;;4973737;28;20510;-46
2022/05/15 02:06:34;;;;;;;13.20;5.20;;;7.30;99.90;;;;;;4973753;28;20031;-46
2022/05/15 02:09:00;;;;;;;15.25;5.97;;;7.30;99.90;;;;;;4973570;28;20201;-49
2022/05/15 02:11:25;;;;;;;13.15;5.82;;;7.30;99.90;;;;;;4972786;28;20122;-47
2022/05/15 02:13:51;;;;;;;15.10;5.45;;;7.20;99.90;;;;;;4973588;28;20031;-46
2022/05/15 02:16:16;;;;;;;13.27;5.72;;;7.20;99.90;;;;;;4968150;28;20030;-45
2022/05/15 02:18:42;;;;;;;9.35;4.47;;;7.10;99.90;;;;;;4965225;28;20027;-46
2022/05/15 02:21:08;;;;;;;13.60;5.30;;;7.10;99.90;;;;;;4966732;28;20090;-46
2022/05/15 02:23:33;;;;;;;10.02;5.97;;;7.10;99.90;;;;;;4962043;28;20034;-47
2022/05/15 02:25:59;;;;;;;8.82;4.60;;;7.00;99.90;;;;;;4969908;28;20085;-46
2022/05/15 02:28:26;;;;;;;8.25;4.53;;;7.00;99.90;;;;;;4973226;28;20064;-46
2022/05/15 02:30:52;;;;;;;10.10;5.10;;;6.90;99.90;;;;;;4973346;28;20014;-49
2022/05/15 02:33:18;;;;;;;6.28;3.35;;;6.80;99.90;;;;;;4972926;28;20085;-51
2022/05/15 02:35:44;;;;;;;6.47;3.53;;;6.70;99.90;;;;;;4956116;28;20023;-52
2022/05/15 02:38:09;;;;;;;11.57;3.78;;;6.60;99.90;;;;;;4953999;29;20486;-50
2022/05/15 02:40:35;;;;;;;9.27;4.18;;;6.60;99.90;;;;;;4953785;29;20106;-47
2022/05/15 02:43:01;;;;;;;10.32;4.78;;;6.60;99.90;;;;;;4953713;28;20405;-51
2022/05/15 02:45:27;;;;;;;11.75;4.90;;;6.60;99.90;;;;;;4954112;29;20369;-47
2022/05/15 02:47:52;;;;;;;6.75;4.30;;;6.60;99.90;;;;;;4953919;29;20027;-51
2022/05/15 02:53:04;;;;;;;10.18;4.53;;;6.50;99.90;;;;;;4953598;28;20546;-48
2022/05/15 02:55:30;;;;;;;12.05;5.05;;;6.50;99.90;;;;;;4953683;29;20047;-49
2022/05/15 02:57:56;;;;;;;8.95;4.65;;;6.50;99.90;;;;;;4953402;29;20039;-48
2022/05/15 03:00:25;;;;;;;19.00;6.63;;;6.50;99.90;;;;;;4953489;29;20480;-48
2022/05/15 03:02:50;;;;;;;17.70;7.70;;;6.50;99.90;;;;;;4952808;28;20385;-47
2022/05/15 03:05:18;;;;;;;20.30;7.22;;;6.50;99.90;;;;;;4953408;29;20039;-48
2022/05/15 03:07:44;;;;;;;16.73;6.95;;;6.50;99.90;;;;;;4952905;29;20025;-50
2022/05/15 03:10:12;;;;;;;13.55;7.25;;;6.50;99.90;;;;;;4953456;29;20126;-46
2022/05/15 03:12:38;;;;;;;18.90;7.45;;;6.50;99.90;;;;;;4952785;29;20041;-45
2022/05/15 03:15:05;;;;;;;18.98;8.32;;;6.50;99.90;;;;;;4953162;28;20035;-49
2022/05/15 03:17:32;;;;;;;19.17;7.32;;;6.50;99.90;;;;;;4953218;29;20443;-49
2022/05/15 03:19:58;;;;;;;14.88;7.43;;;6.50;99.90;;;;;;4952681;29;20050;-49
2022/05/15 03:22:23;;;;;;;15.93;7.65;;;6.50;99.90;;;;;;4952646;28;20035;-46
2022/05/15 03:24:49;;;;;;;12.00;7.10;;;6.50;99.90;;;;;;4952258;28;20480;-46
2022/05/15 03:27:16;;;;;;;13.38;7.47;;;6.50;99.90;;;;;;4951787;29;20042;-47
2022/05/15 03:29:41;;;;;;;12.68;6.63;;;6.50;99.90;;;;;;4953263;29;20057;-48
2022/05/15 03:32:07;;;;;;;9.27;6.57;;;6.50;99.90;;;;;;4952708;29;20059;-46
2022/05/15 03:34:33;;;;;;;13.90;7.53;;;6.50;99.90;;;;;;4952638;28;20408;-47
2022/05/15 03:36:58;;;;;;;11.18;7.75;;;6.50;99.90;;;;;;4952796;29;20034;-48
2022/05/15 03:39:24;;;;;;;13.52;7.25;;;6.50;99.90;;;;;;4952910;29;20040;-46
2022/05/15 03:41:50;;;;;;;11.43;6.50;;;6.50;99.90;;;;;;4952550;29;20110;-46
2022/05/15 03:44:16;;;;;;;11.07;7.65;;;6.50;99.90;;;;;;4952517;28;20074;-46
2022/05/15 03:46:43;;;;;;;11.88;6.95;;;6.50;99.90;;;;;;4952603;29;20030;-45
2022/05/15 03:49:11;;;;;;;10.38;7.07;;;6.50;99.90;;;;;;4952471;29;20115;-46
2022/05/15 03:51:37;;;;;;;11.00;7.05;;;6.50;99.90;;;;;;4952209;29;20055;-47
2022/05/15 03:54:03;;;;;;;8.88;7.22;;;6.60;99.90;;;;;;4951171;28;20038;-46
2022/05/15 03:59:15;;;;;;;10.18;6.85;;;6.60;99.90;;;;;;4952534;29;20045;-45
2022/05/15 04:01:40;;;;;;;12.93;7.03;;;6.60;99.90;;;;;;4951923;29;20555;-45
2022/05/15 04:04:08;;;;;;;9.68;6.47;;;6.60;99.90;;;;;;4952025;28;20066;-45
2022/05/15 04:06:33;;;;;;;9.85;6.57;;;6.60;99.90;;;;;;4952332;29;20118;-46
2022/05/15 04:08:59;;;;;;;9.00;6.53;;;6.60;99.90;;;;;;4952572;29;20115;-46
2022/05/15 04:11:24;;;;;;;9.02;6.22;;;6.60;99.90;;;;;;4952003;29;20183;-46
2022/05/15 04:13:50;;;;;;;9.88;6.28;;;6.60;99.90;;;;;;4952023;28;20503;-45
2022/05/15 04:16:15;;;;;;;8.60;5.97;;;6.70;99.90;;;;;;4951989;29;20148;-46
2022/05/15 04:18:41;;;;;;;8.25;5.78;;;6.70;99.90;;;;;;4951826;29;20082;-44
2022/05/15 04:21:07;;;;;;;8.55;6.45;;;6.70;99.90;;;;;;4951838;29;20043;-46
2022/05/15 04:23:32;;;;;;;7.63;5.75;;;6.70;99.90;;;;;;4951610;28;20035;-47
2022/05/15 04:25:59;;;;;;;8.20;6.10;;;6.70;99.90;;;;;;4951241;29;20038;-45
2022/05/15 04:28:24;;;;;;;6.28;5.20;;;6.70;99.90;;;;;;4951738;29;20024;-45
2022/05/15 04:30:50;;;;;;;8.77;5.47;;;6.70;99.90;;;;;;4951676;29;20027;-47
2022/05/15 04:33:16;;;;;;;5.70;4.97;;;6.70;99.90;;;;;;4950886;28;20027;-47
2022/05/15 04:35:42;;;;;;;7.50;5.90;;;6.70;99.90;;;;;;4951749;29;20061;-45
2022/05/15 04:38:08;;;;;;;7.65;5.45;;;6.70;99.90;;;;;;4951780;29;20039;-49
2022/05/15 04:40:33;;;;;;;6.55;5.25;;;6.70;99.90;;;;;;4950400;29;20042;-47
2022/05/15 04:42:59;;;;;;;5.68;5.18;;;6.70;99.90;;;;;;4951289;28;20102;-46
2022/05/15 04:45:25;;;;;;;5.32;4.82;;;6.70;99.90;;;;;;4951678;29;20050;-48
2022/05/15 04:47:50;;;;;;;6.15;5.38;;;6.70;99.90;;;;;;4951738;29;20044;-49
2022/05/15 04:50:18;;;;;;;5.68;5.15;;;6.80;99.90;;;;;;4951636;29;20031;-47
2022/05/15 04:52:44;;;;;;;5.28;4.78;;;6.80;99.90;;;;;;4949923;29;20046;-45
2022/05/15 04:55:09;;;;;;;5.28;4.78;;;6.90;99.90;;;;;;4951548;29;20034;-48
2022/05/15 04:57:36;;;;;;;6.75;5.75;;;6.90;99.90;;;;;;4951585;29;20031;-47
2022/05/15 05:00:09;;;;;;;5.70;5.07;;;6.90;99.90;;;;;;4951421;29;20027;-49
2022/05/15 05:02:34;;;;;;;5.82;5.22;;;7.00;99.90;;;;;;4951107;29;20051;-46
2022/05/15 05:05:00;;;;;;;5.43;4.93;;;7.10;99.90;;;;;;4950220;28;20110;-46
2022/05/15 05:07:27;;;;;;;9.55;6.50;;;7.10;99.90;;;;;;4951450;29;20066;-46
2022/05/15 05:09:53;;;;;;;9.00;5.75;;;7.20;99.90;;;;;;4951290;29;20027;-47
2022/05/15 05:12:19;;;;;;;5.07;4.40;;;7.30;99.90;;;;;;4951324;29;20081;-47
2022/05/15 05:14:45;;;;;;;9.25;6.03;;;7.40;99.90;;;;;;4951267;28;20171;-45
2022/05/15 05:17:10;;;;;;;6.78;6.10;;;7.50;99.90;;;;;;4951610;29;20031;-46
2022/05/15 05:19:36;;;;;;;7.20;5.82;;;7.60;99.90;;;;;;4951299;29;20041;-49
2022/05/15 05:22:02;;;;;;;8.05;5.53;;;7.60;99.90;;;;;;4951441;29;20062;-49
2022/05/15 05:24:27;;;;;;;11.85;6.10;;;7.60;99.90;;;;;;4951288;28;20503;-49
2022/05/15 05:26:53;;;;;;;15.65;6.88;;;7.80;99.90;;;;;;4951648;29;20031;-47
2022/05/15 05:29:19;;;;;;;18.70;7.25;;;8.20;99.90;;;;;;4951268;29;20414;-46
2022/05/15 05:31:44;;;;;;;14.70;8.27;;;8.30;99.90;;;;;;4951223;29;20034;-47
2022/05/15 05:34:10;;;;;;;19.25;8.93;;;8.40;99.90;;;;;;4951385;28;20149;-46
2022/05/15 05:36:35;;;;;;;18.20;7.88;;;8.50;99.90;;;;;;4951349;29;20668;-46
2022/05/15 05:39:02;;;;;;;20.92;8.07;;;8.60;99.90;;;;;;4951352;29;20472;-47
2022/05/15 05:41:27;;;;;;;17.00;8.20;;;8.70;99.90;;;;;;4951118;29;20031;-48
2022/05/15 05:43:53;;;;;;;15.13;8.48;;;8.80;99.90;;;;;;4950298;28;20054;-46
2022/05/15 05:46:19;;;;;;;21.42;8.50;;;8.90;99.90;;;;;;4954730;29;20110;-50
2022/05/15 05:48:46;;;;;;;17.50;9.05;;;9.10;99.90;;;;;;4954872;29;20023;-46
2022/05/15 05:51:15;;;;;;;17.70;7.43;;;9.30;99.90;;;;;;4954409;29;20026;-49
2022/05/15 05:53:42;;;;;;;20.30;8.05;;;9.30;99.90;;;;;;4954585;28;20027;-47
2022/05/15 05:56:09;;;;;;;17.27;8.35;;;9.50;99.90;;;;;;4954614;29;20043;-47
2022/05/15 05:58:36;;;;;;;16.13;7.35;;;9.60;99.90;;;;;;4954454;29;20140;-46
2022/05/15 06:01:01;;;;;;;11.55;6.40;;;9.80;99.90;;;;;;4954743;29;20488;-47
2022/05/15 06:06:11;;;;;;;18.08;6.30;;;10.10;99.90;;;;;;4954767;29;20537;-47
2022/05/15 06:08:36;;;;;;;10.90;5.10;;;10.30;99.90;;;;;;4954528;29;20102;-48
2022/05/15 06:11:02;;;;;;;13.88;5.05;;;10.50;99.90;;;;;;4954295;29;20028;-48
2022/05/15 06:13:27;;;;;;;13.95;5.03;;;10.70;99.90;;;;;;4953967;28;20023;-48
2022/05/15 06:15:54;;;;;;;16.50;4.93;;;10.90;99.90;;;;;;4954418;29;20027;-47
2022/05/15 06:18:20;;;;;;;10.45;3.90;;;11.20;99.90;;;;;;4954202;29;20031;-50
2022/05/15 06:20:46;;;;;;;9.95;4.35;;;11.30;99.90;;;;;;4954065;29;20423;-48
2022/05/15 06:23:11;;;;;;;11.23;3.78;;;11.60;99.90;;;;;;4953628;28;20488;-49
2022/05/15 06:25:37;;;;;;;8.43;2.95;;;11.80;99.90;;;;;;4953688;29;20047;-47
2022/05/15 06:28:04;;;;;;;5.78;2.60;;;12.00;99.90;;;;;;4953992;29;20082;-46
2022/05/15 06:30:30;;;;;;;9.30;2.55;;;12.20;99.90;;;;;;4953955;29;20035;-47
2022/05/15 06:32:55;;;;;;;5.88;2.15;;;12.40;99.90;;;;;;4953684;28;20027;-48
2022/05/15 06:35:21;;;;;;;3.50;1.35;;;12.60;99.90;;;;;;4954172;29;20584;-47
2022/05/15 06:37:47;;;;;;;9.50;2.35;;;12.90;99.90;;;;;;4954001;29;20034;-47
2022/05/15 06:40:15;;;;;;;6.45;2.10;;;13.10;99.90;;;;;;4953920;29;20031;-47
2022/05/15 06:42:41;;;;;;;3.53;1.70;;;13.20;99.90;;;;;;4953917;29;20023;-46
2022/05/15 06:45:08;;;;;;;3.17;1.90;;;13.40;99.90;;;;;;4936500;29;20023;-47
2022/05/15 06:47:33;;;;;;;5.35;1.88;;;13.60;99.90;;;;;;4954003;29;20049;-48
2022/05/15 06:50:00;;;;;;;3.55;1.65;;;13.80;99.90;;;;;;4953686;29;20476;-50
2022/05/15 06:52:26;;;;;;;2.25;1.30;;;14.10;99.90;;;;;;4953548;29;20032;-50
2022/05/15 06:54:53;;;;;;;3.42;1.05;;;14.30;99.90;;;;;;4953563;28;20027;-50
2022/05/15 06:57:32;;;;;;;2.90;1.02;;;14.40;99.90;;;;;;4953012;28;20452;-48
2022/05/15 07:00:08;;;;;;;3.78;1.63;;;14.70;99.90;;;;;;4953582;29;20072;-49
2022/05/15 07:02:33;;;;;;;3.33;1.73;;;14.90;99.90;;;;;;4953120;29;20063;-51
2022/05/15 07:04:59;;;;;;;6.45;1.83;;;15.10;99.90;;;;;;4953438;28;20085;-51
2022/05/15 07:07:24;;;;;;;5.95;1.58;;;15.20;99.90;;;;;;4953379;29;20692;-50
2022/05/15 07:09:51;;;;;;;1.90;1.60;;;15.40;99.90;;;;;;4953369;29;20187;-49
2022/05/15 07:12:16;;;;;;;2.38;1.33;;;15.60;99.90;;;;;;4953114;29;20098;-47
2022/05/15 07:14:43;;;;;;;3.35;1.80;;;15.90;99.90;;;;;;4953225;28;20492;-45
2022/05/15 07:17:08;;;;;;;4.60;1.48;;;16.10;99.90;;;;;;4952186;29;20031;-51
2022/05/15 07:19:34;;;;;;;3.63;1.45;;;16.00;99.90;;;;;;4953003;29;20521;-52
2022/05/15 07:22:00;;;;;;;3.90;1.63;;;16.30;99.90;;;;;;4953026;29;20431;-49
2022/05/15 07:24:25;;;;;;;3.85;1.60;;;16.30;99.90;;;;;;4952647;28;20027;-47
2022/05/15 07:26:52;;;;;;;2.47;1.60;;;16.30;99.90;;;;;;4935345;29;20047;-48
2022/05/15 07:29:18;;;;;;;2.60;1.30;;;16.40;99.90;;;;;;4952939;29;20027;-51
2022/05/15 07:31:43;;;;;;;1.63;1.10;;;16.50;99.90;;;;;;4953012;29;20399;-53
2022/05/15 07:34:10;;;;;;;2.60;1.20;;;16.80;99.90;;;;;;4952949;28;20030;-47
2022/05/15 07:36:36;;;;;;;3.30;1.25;;;17.00;99.90;;;;;;4952828;29;20557;-50
2022/05/15 07:39:03;;;;;;;2.08;0.95;;;17.20;99.90;;;;;;4953025;29;20043;-49
2022/05/15 07:41:28;;;;;;;2.25;1.15;;;17.50;99.90;;;;;;4952775;29;20059;-47
2022/05/15 07:43:54;;;;;;;1.67;1.10;;;17.30;99.90;;;;;;4952971;28;20443;-47
2022/05/15 07:46:21;;;;;;;2.05;1.17;;;17.50;99.80;;;;;;4952718;29;20027;-46
2022/05/15 07:48:46;;;;;;;1.48;0.93;;;17.70;99.90;;;;;;4952837;29;20027;-50
2022/05/15 07:51:12;;;;;;;1.02;0.73;;;17.70;97.20;;;;;;4952399;29;20369;-50
2022/05/15 07:53:39;;;;;;;1.85;0.73;;;17.90;97.00;;;;;;4952788;28;20055;-48
2022/05/15 07:56:09;;;;;;;2.47;0.95;;;18.10;98.60;;;;;;4952786;29;20113;-48
2022/05/15 07:58:36;;;;;;;2.08;0.90;;;18.30;95.00;;;;;;4953018;29;20058;-47
2022/05/15 08:01:04;;;;;;;1.13;0.98;;;18.40;92.20;;;;;;4952872;29;20500;-47
2022/05/15 08:03:33;;;;;;;2.65;1.00;;;18.40;93.20;;;;;;4952389;28;20070;-47
2022/05/15 08:08:44;;;;;;;1.15;0.70;;;18.40;93.60;;;;;;4951881;28;20034;-49
2022/05/15 08:11:09;;;;;;;3.83;0.75;;;18.60;92.30;;;;;;4952257;29;20031;-46
2022/05/15 08:13:35;;;;;;;1.08;0.70;;;18.30;87.50;;;;;;4952348;28;20034;-52
2022/05/15 08:16:01;;;;;;;0.90;0.70;;;18.10;90.50;;;;;;4952196;29;20034;-47
2022/05/15 08:23:59;;;;;;;1.05;0.40;;;18.50;90.10;;;;;;4950671;28;20098;-47
2022/05/15 08:26:26;;;;;;;2.17;0.82;;;19.00;90.50;;;;;;4949607;29;20394;-50
2022/05/15 08:28:53;;;;;;;2.60;0.80;;;19.30;88.90;;;;;;4950188;29;20521;-49
2022/05/15 08:31:20;;;;;;;2.33;0.85;;;19.70;92.10;;;;;;4951914;29;20546;-47
2022/05/15 08:33:47;;;;;;;2.45;0.80;;;20.00;90.40;;;;;;4952096;28;20039;-47
2022/05/15 08:36:13;;;;;;;0.88;0.52;;;20.20;83.60;;;;;;4935125;29;20031;-47
2022/05/15 08:38:39;;;;;;;1.90;0.82;;;20.20;83.60;;;;;;4952311;29;20035;-49
2022/05/15 08:41:10;;;;;;;0.93;0.65;;;20.40;82.50;;;;;;4952088;29;20484;-48
2022/05/15 08:43:56;;;;;;;1.02;0.70;;;20.30;78.80;;;;;;4951623;28;20059;-48
2022/05/15 08:46:49;;;;;;;1.27;0.82;;;20.30;75.80;;;;;;4951950;29;20031;-47
2022/05/15 08:49:37;;;;;;;1.67;1.00;;;20.50;79.20;;;;;;4951724;29;20023;-46
2022/05/15 08:52:17;;;;;;;3.80;1.45;;;20.20;71.90;;;;;;4951539;29;20459;-48
2022/05/15 08:54:55;;;;;;;1.77;0.75;;;20.00;76.20;;;;;;4951833;28;20118;-49
2022/05/15 08:57:44;;;;;;;0.70;0.70;;;20.10;78.30;;;;;;4951596;29;20031;-51
2022/05/15 09:00:15;;;;;;;1.88;0.90;;;20.40;79.90;;;;;;4950424;29;20036;-50
2022/05/15 09:02:46;;;;;;;2.95;1.10;;;20.30;73.20;;;;;;4934182;29;20066;-50
2022/05/15 09:05:14;;;;;;;1.67;0.70;;;20.10;76.30;;;;;;4951817;29;20034;-49
2022/05/15 09:07:56;;;;;;;2.85;1.10;;;20.30;81.70;;;;;;4934501;29;20349;-49
2022/05/15 09:10:37;;;;;;;1.50;0.90;;;20.50;76.30;;;;;;4950716;29;20506;-50
2022/05/15 09:13:11;;;;;;;1.85;0.77;;;20.50;76.40;;;;;;4951723;28;20035;-49
2022/05/15 09:15:56;;;;;;;0.73;0.73;;;20.60;79.20;;;;;;4952267;29;20031;-50
2022/05/15 09:18:21;;;;;;;3.00;0.98;;;20.80;78.90;;;;;;4951917;28;20101;-48
2022/05/15 09:20:53;;;;;;;1.63;0.80;;;21.10;75.80;;;;;;4954884;29;20496;-47
2022/05/15 09:23:36;;;;;;;2.08;1.00;;;20.90;70.20;;;;;;4954915;28;20050;-47
2022/05/15 09:26:44;;;;;;;3.13;0.90;;;20.10;70.20;;;;;;4954959;29;20023;-47
2022/05/15 09:29:17;;;;;;;0.93;0.57;;;19.80;71.30;;;;;;4950106;29;20041;-50
2022/05/15 09:31:43;;;;;;;1.30;0.60;;;19.60;69.30;;;;;;4955117;29;20023;-50
2022/05/15 09:34:25;;;;;;;0.55;0.55;;;19.50;74.40;;;;;;4955118;28;20093;-47
2022/05/15 09:36:52;;;;;;;1.20;0.68;;;19.90;77.80;;;;;;4955377;29;20451;-50
2022/05/15 09:39:27;;;;;;;0.70;0.68;;;20.30;74.80;;;;;;4955162;29;20079;-49
2022/05/15 09:44:49;;;;;;;2.25;0.70;;;20.70;73.50;;;;;;4955126;28;20045;-47
2022/05/15 09:47:36;;;;;;;1.05;0.60;;;20.90;73.30;;;;;;4937863;29;20023;-49
2022/05/15 09:50:03;;;;;;;1.67;0.88;;;20.90;71.40;;;;;;4955107;29;20562;-48
2022/05/15 09:52:29;;;;;;;0.80;0.75;;;21.20;72.20;;;;;;4954988;29;20110;-47
2022/05/15 09:55:11;;;;;;;1.63;0.65;;;21.30;71.40;;;;;;4955238;28;20110;-47
2022/05/15 09:57:38;;;;;;;0.93;0.52;;;21.30;73.20;;;;;;4955056;29;20774;-49
2022/05/15 10:00:09;;;;;;;0.55;0.50;;;21.40;76.40;;;;;;4954737;29;20496;-48
2022/05/15 10:02:50;;;;;;;3.08;1.00;;;21.20;71.40;;;;;;4954623;29;20031;-48
2022/05/15 10:05:21;;;;;;;2.15;1.10;;;20.90;70.20;;;;;;4937613;29;20122;-48
2022/05/15 10:07:57;;;;;;;0.45;0.45;;;20.80;68.40;;;;;;4955224;29;20118;-47
2022/05/15 10:10:29;;;;;;;1.75;0.65;;;20.80;69.40;;;;;;4955022;29;20020;-47
2022/05/15 10:13:11;;;;;;;1.52;0.80;;;20.80;69.30;;;;;;4937250;28;20388;-50
2022/05/15 10:15:44;;;;;;;1.05;0.60;;;21.00;69.70;;;;;;4955127;29;20034;-48
2022/05/15 10:18:15;;;;;;;1.90;0.65;;;21.00;69.10;;;;;;4954876;29;20672;-50
2022/05/15 10:20:43;;;;;;;1.20;0.80;;;20.80;66.30;;;;;;4954557;29;20110;-50
2022/05/15 10:23:34;;;;;;;1.65;0.73;;;20.60;68.10;;;;;;4953865;28;20093;-49
2022/05/15 10:26:05;;;;;;;1.95;0.80;;;20.50;66.70;;;;;;4953959;29;20035;-48
2022/05/15 10:28:55;;;;;;;2.67;0.60;;;20.20;67.30;;;;;;4954466;29;20038;-49
2022/05/15 10:31:23;;;;;;;2.33;0.70;;;20.10;67.30;;;;;;4953335;28;20120;-51
2022/05/15 10:33:52;;;;;;;1.10;0.63;;;20.00;69.70;;;;;;4954305;28;20047;-47
2022/05/15 10:36:24;;;;;;;1.90;0.73;;;20.20;72.40;;;;;;4954268;29;20023;-50
2022/05/15 10:39:23;;;;;;;0.85;0.60;;;20.30;73.40;;;;;;4954242;29;20035;-49
2022/05/15 10:42:10;;;;;;;1.50;0.70;;;20.40;73.60;;;;;;4953818;29;20086;-49
2022/05/15 10:44:45;;;;;;;1.17;0.80;;;20.60;72.60;;;;;;4953953;28;20037;-50
2022/05/15 10:47:27;;;;;;;1.20;0.90;;;20.50;69.60;;;;;;4954014;29;20042;-49
2022/05/15 10:50:23;;;;;;;1.05;0.60;;;20.40;70.80;;;;;;4954037;29;20102;-50
2022/05/15 10:59:45;;;;;;;2.00;0.77;;;20.30;69.90;;;;;;4953769;29;20039;-50
2022/05/15 11:02:20;;;;;;;1.88;0.95;;;20.10;68.90;;;;;;4953586;29;20106;-51
2022/05/15 11:04:52;;;;;;;1.70;0.73;;;20.10;72.60;;;;;;4953658;28;20094;-51
2022/05/15 11:07:41;;;;;;;1.08;0.77;;;20.10;70.80;;;;;;4953553;29;20035;-49
2022/05/15 11:10:06;;;;;;;2.00;0.88;;;20.10;70.40;;;;;;4953746;29;20106;-51
2022/05/15 11:12:48;;;;;;;1.98;0.88;;;20.10;70.90;;;;;;4953329;29;20571;-51
2022/05/15 11:15:41;;;;;;;2.60;0.80;;;19.90;69.80;;;;;;4953410;29;20027;-50
2022/05/15 11:18:43;;;;;;;1.20;0.50;;;19.90;69.70;;;;;;4953370;29;20038;-50
2022/05/15 11:21:40;;;;;;;0.55;0.55;;;20.00;70.20;;;;;;4953013;29;20381;-46
2022/05/15 11:24:32;;;;;;;1.60;0.98;;;20.10;71.50;;;;;;4953016;28;20031;-49
2022/05/15 11:27:08;;;;;;;1.75;1.17;;;20.10;68.70;;;;;;4953289;29;20086;-47
2022/05/15 11:29:38;;;;;;;1.52;1.00;;;20.00;69.40;;;;;;4953446;29;20023;-48
2022/05/15 11:32:26;;;;;;;1.67;0.90;;;20.20;70.70;;;;;;4953005;29;20882;-47
2022/05/15 11:35:20;;;;;;;2.67;0.75;;;20.20;70.70;;;;;;4951974;28;20070;-47
2022/05/15 11:38:04;;;;;;;2.33;0.68;;;20.30;76.90;;;;;;4953219;29;20026;-50
2022/05/15 11:40:39;;;;;;;3.53;0.90;;;20.30;69.00;;;;;;4953078;29;20602;-47
2022/05/15 11:43:26;;;;;;;1.35;0.85;;;19.90;68.30;;;;;;4952435;28;20027;-48
2022/05/15 11:45:52;;;;;;;2.75;0.82;;;19.60;69.00;;;;;;4952923;29;20031;-51
2022/05/15 11:48:24;;;;;;;1.88;0.90;;;19.70;70.30;;;;;;4953240;29;20023;-47
2022/05/15 11:50:57;;;;;;;2.17;0.70;;;19.70;69.10;;;;;;4953262;29;20055;-49
2022/05/15 11:53:55;;;;;;;1.65;1.00;;;19.70;70.00;;;;;;4952544;28;20037;-50
2022/05/15 11:56:52;;;;;;;2.17;0.98;;;19.70;70.40;;;;;;4935210;29;20042;-50
2022/05/15 11:59:21;;;;;;;1.85;0.90;;;19.80;69.40;;;;;;4952676;29;20027;-49
2022/05/15 12:01:58;;;;;;;1.45;0.80;;;19.60;69.30;;;;;;4952470;29;20031;-48
2022/05/15 12:04:36;;;;;;;2.08;0.80;;;19.60;69.10;;;;;;4952391;28;20044;-53
2022/05/15 12:07:01;;;;;;;2.42;0.73;;;19.50;72.00;;;;;;4952592;29;20518;-48
2022/05/15 12:09:44;;;;;;;2.47;1.10;;;19.60;70.60;;;;;;4952372;29;20047;-47
2022/05/15 12:12:24;;;;;;;1.85;1.10;;;19.50;70.20;;;;;;4952408;29;20028;-48
2022/05/15 12:15:05;;;;;;;3.13;1.02;;;19.70;71.70;;;;;;4951215;28;20106;-48
2022/05/15 12:17:38;;;;;;;1.33;0.93;;;19.90;74.30;;;;;;4952411;29;20035;-49
2022/05/15 12:20:14;;;;;;;2.25;1.00;;;20.10;73.40;;;;;;4934944;29;20039;-49
2022/05/15 12:22:43;;;;;;;;;;;20.20;69.20;;;;;;4952355;29;20050;-47
2022/05/15 12:25:13;;;;;;;1.65;1.00;;;19.90;70.50;;;;;;4952115;28;20065;-47
2022/05/15 12:28:52;;;;;;;4.28;1.00;;;20.10;73.30;;;;;;4952443;29;20031;-47
2022/05/15 12:31:27;;;;;;;2.40;0.82;;;20.40;72.60;;;;;;4874115;29;20026;-51
2022/05/15 12:33:53;;;;;;;1.85;1.00;;;20.60;72.20;;;;;;4950414;28;20409;-48
2022/05/15 12:36:37;;;;;;;2.45;0.77;;;20.80;72.10;;;;;;4952104;29;20023;-46
2022/05/15 12:39:04;;;;;;;1.52;0.80;;;20.90;69.10;;;;;;4934894;29;20031;-47
2022/05/15 12:41:36;;;;;;;2.00;0.93;;;21.00;70.70;;;;;;4950425;29;20040;-46
2022/05/15 12:44:10;;;;;;;0.95;0.57;;;21.00;68.50;;;;;;4951724;28;20597;-53
2022/05/15 12:46:39;;;;;;;2.53;0.80;;;21.00;69.60;;;;;;4951687;29;20032;-48
2022/05/15 12:49:07;;;;;;;2.03;0.82;;;21.10;69.30;;;;;;4951723;29;20020;-51
2022/05/15 12:51:38;;;;;;;1.02;0.90;;;21.20;68.20;;;;;;4951690;29;20506;-48
2022/05/15 12:54:21;;;;;;;1.73;0.80;;;21.20;68.50;;;;;;4954076;28;20067;-48
2022/05/15 12:56:58;;;;;;;0.80;0.80;;;21.40;71.10;;;;;;4958509;28;20410;-48
2022/05/15 12:59:25;;;;;;;0.98;0.77;;;21.50;68.80;;;;;;4941126;29;20395;-47
2022/05/15 13:01:51;;;;;;;3.03;0.90;;;21.70;67.00;;;;;;4958368;28;20491;-47
2022/05/15 13:04:23;;;;;;;1.25;0.80;;;21.80;66.10;;;;;;4958355;28;20043;-47
2022/05/15 13:06:53;;;;;;;1.08;0.98;;;21.70;67.10;;;;;;4958312;29;20027;-48
2022/05/15 13:09:21;;;;;;;3.75;1.05;;;21.70;66.80;;;;;;4958389;28;20066;-51
2022/05/15 13:11:52;;;;;;;1.23;0.55;;;21.90;67.20;;;;;;4957931;29;20105;-51
2022/05/15 13:14:26;;;;;;;0.82;0.80;;;21.90;67.20;;;;;;4940949;29;20021;-51
2022/05/15 13:16:53;;;;;;;2.00;1.10;;;22.00;66.80;;;;;;4958401;28;20032;-48
2022/05/15 13:19:43;;;;;;;1.25;0.75;;;22.30;68.40;;;;;;4957845;28;20049;-46
2022/05/15 13:22:31;;;;;;;1.23;0.90;;;22.40;67.40;;;;;;4940003;29;20046;-47
2022/05/15 13:25:00;;;;;;;2.88;0.70;;;22.60;66.20;;;;;;4957854;28;20035;-47
2022/05/15 13:27:26;;;;;;;2.35;0.90;;;22.60;66.20;;;;;;4958085;28;20035;-52
2022/05/15 13:29:53;;;;;;;1.33;1.00;;;22.60;65.50;;;;;;4958218;29;20030;-52